New Boston, MI (48164)

10:52 PM EDT on May 29, 2015 (GMT -0400)
KMIBROWN4 | | Change Station
CLOSE
Current Station
Personal Weather Station
Location: Brownstown, MI
Elevation: 623 ft
Nearby Weather Stations

Elev 623 ft 42.16 °N, 83.30 °W | Updated 14 seconds ago

Partly Cloudy
Partly Cloudy
70.0 °F
Feels Like 70.0 °F
N
0.0
Wind Variable Wind from South
Gusts 0.0 mph

Today
High -- | Low -- °F
--% Chance of Precip.
Yesterday
High -- | Low -- °F
Precip. -- in
6:01 AM 9:00 PM
Waxing Gibbous, 87% visible
Pressure 29.99 in
Visibility 10.0 miles
Clouds Few 3500 ft
Scattered Clouds 6000 ft
Mostly Cloudy 20000 ft
Dew Point 66 °F
Humidity 88%
Rainfall 0.05 in
Snow Depth Not available.
UV 0 out of 12
Pollen 7.70 out of 12
Air Quality Not available.
Flu Activity Sporadic
METAR KDTW 300153Z 14005KT 10SM FEW035 SCT060 BKN200 22/18 A3000 RMK AO2 SLP156 T02220183 $

More Conditions Fewer Conditions

Pressure 29.99 in
Visibility 10.0 miles
Clouds Few 3500 ft
Scattered Clouds 6000 ft
Mostly Cloudy 20000 ft
Dew Point 66 °F
Humidity 88%
Rainfall 0.05 in
Snow Depth Not available.
UV 0 out of 12
Pollen 7.70 out of 12
Air Quality Not available.
Flu Activity Sporadic
METAR KDTW 300153Z 14005KT 10SM FEW035 SCT060 BKN200 22/18 A3000 RMK AO2 SLP156 T02220183 $

More Conditions Fewer Conditions

10-Day Weather Forecast

Almanac

Astronomy

May. 29, 2015 Rise Set
Actual Time
Civil Twilight
Nautical Twilight
Astronomical Twilight
Moon
Length of Visible Light
Length of Day
Tomorrow will be .
, % of the Moon is Illuminated

Today's Extremes

State Highs State Lows

Community

WunderPhotos

Upload Photos

1,825,430 photos uploaded!

WunderBlogs® & News

Nearby

Air Quality

  Air Quality AQ Index Pollutant
Not available.

Snow Depth

Station Depth Elevation

Earthquake Activity

City Distance Mag. Time & Date
Minimum magnitude displayed is 2.5.

Coastal Water Temperatures

Place Temperature

Stations

Nearby Weather Stations

Station Location Temp. Windchill Dew Point Humidity Wind Precip. Elev Updated Type